Elizabethtown, Kentucky
Current Conditions -  °F | °C
As of 12:58 AM on Saturday 25 Oct 2014 (Local Time) from KFTK Reporting Station
Clear Clear  
Wind Chill: 47°   Ceiling: Unl
Heat Index: 47°   Visibility: 8mi
Dew Point: 46°   Wind: 0mph
Humidity: 95%   Direction: NA
Pressure: 30.05"   Gusts: NA
Location:  37.69°N, 85.86°W
Report Text: KFTK 250458Z AUTO 00000KT 8SM R18/5500FT CLR 09/08 A3005 RMK AO2 SLP178 T00860079 401900030
Loading
Personal Weather Stations






























Interactive Weather Map
Tropical Storm Tracking
New forecast layout! Learn more

10-Day Weather Forecast

Advertisements
Track Severe Weather on mobile